Time;durP1;ratioP1;P1;durP2;ratioP2;P2;SDS_P1;SDS_P2;PMS_P1;PMS_P2;Temp;Humidity;BMP_temperature;BMP_pressure;BME280_temperature;BME280_humidity;BME280_pressure;Samples;Min_cycle;Max_cycle;Signal;HPM_P1;HPM_P2
2022/11/12 00:02:37;;;;;;;4.45;3.60;;;12.90;82.60;;;;;;5027448;28;20033;-76
2022/11/12 00:05:21;;;;;;;6.32;3.90;;;12.90;82.60;;;;;;5027227;28;20604;-75
2022/11/12 00:08:06;;;;;;;5.32;3.25;;;12.90;82.70;;;;;;5026887;28;20091;-75
2022/11/12 00:10:51;;;;;;;4.70;3.60;;;12.90;82.80;;;;;;5012143;28;20040;-75
2022/11/12 00:13:36;;;;;;;4.25;3.42;;;12.90;82.80;;;;;;5026828;28;20075;-75
2022/11/12 00:16:21;;;;;;;7.03;3.40;;;12.90;83.00;;;;;;5027195;28;20033;-75
2022/11/12 00:19:05;;;;;;;4.47;3.35;;;12.90;83.10;;;;;;5028178;28;20585;-76
2022/11/12 00:21:49;;;;;;;5.70;3.42;;;12.90;83.30;;;;;;5027940;28;20037;-75
2022/11/12 00:24:34;;;;;;;4.05;2.78;;;12.80;83.40;;;;;;5019873;28;20033;-76
2022/11/12 00:27:18;;;;;;;4.88;3.25;;;12.80;83.50;;;;;;5026433;28;20459;-75
2022/11/12 00:30:04;;;;;;;3.58;2.83;;;12.80;83.50;;;;;;5027494;28;20384;-74
2022/11/12 00:32:48;;;;;;;3.20;2.63;;;12.90;83.70;;;;;;5027819;28;20083;-75
2022/11/12 00:35:33;;;;;;;3.63;2.75;;;12.90;83.60;;;;;;5028715;28;20087;-75
2022/11/12 00:38:17;;;;;;;4.05;2.85;;;12.80;83.60;;;;;;5010026;28;20538;-75
2022/11/12 00:41:02;;;;;;;4.57;3.05;;;12.80;83.50;;;;;;5027080;28;20053;-74
2022/11/12 00:43:46;;;;;;;3.80;2.65;;;12.80;83.50;;;;;;5009369;28;20044;-75
2022/11/12 00:46:31;;;;;;;2.90;2.60;;;12.80;83.60;;;;;;5027392;28;20053;-75
2022/11/12 00:49:16;;;;;;;4.05;2.75;;;12.80;83.70;;;;;;5027771;28;20041;-75
2022/11/12 00:52:00;;;;;;;2.60;2.40;;;12.80;83.80;;;;;;5027340;28;20121;-74
2022/11/12 00:54:44;;;;;;;3.17;2.78;;;12.80;84.00;;;;;;5027197;28;20096;-75
2022/11/12 00:57:29;;;;;;;4.60;3.20;;;12.70;84.10;;;;;;5026976;28;20048;-75
2022/11/12 01:00:16;;;;;;;2.45;2.25;;;12.70;84.30;;;;;;5012222;28;20033;-75
2022/11/12 01:03:00;;;;;;;4.38;2.30;;;12.70;84.10;;;;;;5012120;28;20149;-75
2022/11/12 01:05:45;;;;;;;3.00;2.72;;;12.80;84.10;;;;;;5027540;28;20025;-76
2022/11/12 01:08:29;;;;;;;3.28;2.60;;;12.70;84.30;;;;;;5008703;28;20035;-75
2022/11/12 01:11:20;;;;;;;3.25;2.63;;;12.70;84.40;;;;;;5009569;28;20046;-75
2022/11/12 01:14:07;;;;;;;5.68;2.83;;;12.70;84.40;;;;;;5009089;28;20040;-74
2022/11/12 01:16:51;;;;;;;4.07;2.58;;;12.80;84.50;;;;;;5027193;28;20083;-75
2022/11/12 01:19:36;;;;;;;3.35;2.63;;;12.70;84.50;;;;;;5026566;28;20044;-75
2022/11/12 01:22:20;;;;;;;3.58;2.70;;;12.70;84.60;;;;;;5012129;28;20651;-75
2022/11/12 01:25:05;;;;;;;3.20;2.90;;;12.70;84.70;;;;;;5026271;28;20037;-76
2022/11/12 01:27:49;;;;;;;3.63;2.65;;;12.70;84.70;;;;;;5026943;28;20044;-74
2022/11/12 01:30:34;;;;;;;4.28;2.78;;;12.70;84.80;;;;;;5027065;28;20037;-76
2022/11/12 01:33:18;;;;;;;4.03;2.80;;;12.70;84.80;;;;;;5026438;28;20091;-75
2022/11/12 01:36:02;;;;;;;4.22;2.90;;;12.70;84.90;;;;;;5010457;28;20030;-77
2022/11/12 01:38:47;;;;;;;3.78;2.80;;;12.70;84.80;;;;;;5027089;28;20525;-77
2022/11/12 01:41:34;;;;;;;4.00;3.00;;;12.70;84.90;;;;;;5027498;28;20041;-77
2022/11/12 01:44:21;;;;;;;4.72;3.08;;;12.70;84.90;;;;;;5025732;28;20056;-75
2022/11/12 01:47:18;;;;;;;3.40;2.92;;;12.70;85.00;;;;;;5026071;28;20420;-75
2022/11/12 01:50:23;;;;;;;4.22;3.17;;;12.60;85.00;;;;;;5025901;28;20037;-75
2022/11/12 01:53:11;;;;;;;3.95;2.90;;;12.60;85.10;;;;;;5026408;28;20046;-75
2022/11/12 01:55:56;;;;;;;2.95;2.65;;;12.70;85.10;;;;;;5007989;28;20459;-75
2022/11/12 01:58:43;;;;;;;3.60;3.25;;;12.70;85.10;;;;;;5026530;28;20103;-75
2022/11/12 02:01:27;;;;;;;4.55;3.25;;;12.60;85.10;;;;;;5004322;28;20076;-75
2022/11/12 02:04:12;;;;;;;7.00;3.50;;;12.60;85.20;;;;;;5007925;28;20467;-75
2022/11/12 02:06:57;;;;;;;4.85;3.38;;;12.60;85.40;;;;;;5026337;28;20033;-75
2022/11/12 02:09:41;;;;;;;3.70;3.33;;;12.60;85.20;;;;;;5025406;28;20041;-73
2022/11/12 02:15:30;;;;;;;6.57;3.42;;;12.60;85.40;;;;;;5025860;28;20033;-73
2022/11/12 02:18:14;;;;;;;3.67;3.33;;;12.70;85.50;;;;;;5025865;28;20095;-75
2022/11/12 02:21:06;;;;;;;3.75;3.20;;;12.70;85.50;;;;;;5025448;28;20037;-76
2022/11/12 02:24:18;;;;;;;4.88;3.42;;;12.60;85.50;;;;;;5026000;28;20079;-76
2022/11/12 02:27:04;;;;;;;4.10;3.20;;;12.70;86.10;;;;;;5022024;28;20037;-75
2022/11/12 02:29:49;;;;;;;5.53;3.65;;;12.70;85.60;;;;;;5025978;28;20629;-76
2022/11/12 02:32:34;;;;;;;3.63;3.00;;;12.70;85.80;;;;;;5018036;28;20088;-76
2022/11/12 02:35:18;;;;;;;4.60;3.25;;;12.70;85.70;;;;;;5026358;28;20107;-74
2022/11/12 02:38:04;;;;;;;4.15;3.58;;;12.60;85.60;;;;;;5025848;28;20968;-76
2022/11/12 02:40:48;;;;;;;3.55;3.20;;;12.70;85.80;;;;;;5007365;28;20458;-75
2022/11/12 02:43:32;;;;;;;3.38;2.95;;;12.70;85.80;;;;;;5025249;28;20033;-74
2022/11/12 02:46:17;;;;;;;4.40;3.25;;;12.70;85.80;;;;;;5024807;28;20068;-74
2022/11/12 02:49:02;;;;;;;5.32;3.30;;;12.70;85.90;;;;;;5025176;28;20045;-74
2022/11/12 02:51:46;;;;;;;3.75;2.90;;;12.70;85.90;;;;;;5007554;28;20405;-74
2022/11/12 02:54:31;;;;;;;4.60;3.28;;;12.70;85.90;;;;;;5025084;28;20140;-75
2022/11/12 02:57:15;;;;;;;7.22;3.33;;;12.70;85.90;;;;;;5025455;28;20487;-74
2022/11/12 02:59:59;;;;;;;3.47;2.88;;;12.70;85.80;;;;;;5024888;28;20041;-74
2022/11/12 03:02:57;;;;;;;6.50;3.42;;;12.70;85.80;;;;;;5025541;28;20034;-76
2022/11/12 03:05:42;;;;;;;3.00;2.70;;;12.70;85.90;;;;;;5025915;28;20045;-74
2022/11/12 03:08:27;;;;;;;3.45;3.13;;;12.70;85.90;;;;;;5025000;28;20171;-75
2022/11/12 03:11:14;;;;;;;4.07;3.00;;;12.70;85.90;;;;;;5025945;28;20033;-75
2022/11/12 03:14:00;;;;;;;3.38;3.05;;;12.70;86.40;;;;;;5024932;28;20036;-75
2022/11/12 03:16:44;;;;;;;;;;;12.70;85.80;;;;;;5025481;28;20038;-76
2022/11/12 03:19:29;;;;;;;3.92;3.13;;;12.70;85.60;;;;;;5025638;28;20008;-75
2022/11/12 03:22:14;;;;;;;5.32;2.95;;;12.70;85.80;;;;;;5026156;28;20041;-75
2022/11/12 03:24:58;;;;;;;3.42;3.13;;;12.70;85.70;;;;;;5024694;28;20038;-76
2022/11/12 03:27:43;;;;;;;3.13;2.80;;;12.70;85.70;;;;;;5016306;28;20124;-76
2022/11/12 03:30:30;;;;;;;3.38;2.90;;;12.70;85.70;;;;;;5025200;28;20531;-77
2022/11/12 03:33:16;;;;;;;3.00;2.55;;;12.70;85.70;;;;;;5024739;28;20103;-77
2022/11/12 03:36:00;;;;;;;4.38;2.88;;;12.70;85.70;;;;;;5024703;28;20056;-75
2022/11/12 03:38:44;;;;;;;4.32;2.88;;;12.70;85.80;;;;;;5025646;28;20052;-76
2022/11/12 03:41:29;;;;;;;3.60;3.10;;;12.70;85.70;;;;;;5025695;28;21049;-76
2022/11/12 03:44:13;;;;;;;3.83;2.50;;;12.70;85.70;;;;;;5009646;28;20045;-77
2022/11/12 03:46:58;;;;;;;3.30;2.80;;;12.70;85.70;;;;;;5025416;28;20042;-76
2022/11/12 03:49:42;;;;;;;5.22;2.60;;;12.70;85.80;;;;;;5025131;28;20496;-76
2022/11/12 03:52:27;;;;;;;2.85;2.60;;;12.70;85.80;;;;;;5024799;28;20072;-76
2022/11/12 03:55:13;;;;;;;3.17;2.70;;;12.80;85.70;;;;;;5024628;28;20033;-75
2022/11/12 03:57:58;;;;;;;2.95;2.65;;;12.80;85.60;;;;;;5023922;28;20532;-75
2022/11/12 04:00:43;;;;;;;2.72;2.47;;;12.80;85.60;;;;;;5025376;28;20056;-75
2022/11/12 04:03:27;;;;;;;2.60;2.40;;;12.80;85.60;;;;;;5007274;28;20377;-75
2022/11/12 04:09:15;;;;;;;2.90;2.50;;;12.80;85.70;;;;;;5027480;28;20615;-75
2022/11/12 04:13:26;;;;;;;3.83;2.83;;;12.80;85.90;;;;;;5028378;28;20041;-75
2022/11/12 04:15:04;;;;;;;2.38;2.17;;;12.80;86.00;;;;;;5029514;28;20108;-75
2022/11/12 04:23:59;;;;;;;3.22;2.50;;;12.80;86.10;;;;;;5005974;28;20093;-75
2022/11/12 04:26:44;;;;;;;3.10;2.50;;;12.80;86.00;;;;;;5006651;28;20045;-75
2022/11/12 04:32:34;;;;;;;2.90;2.40;;;12.80;86.10;;;;;;5006148;28;20041;-76
2022/11/12 04:35:20;;;;;;;2.75;1.85;;;12.80;86.00;;;;;;5005614;28;20173;-75
2022/11/12 04:38:04;;;;;;;2.55;2.15;;;12.80;86.10;;;;;;5006076;28;20045;-75
2022/11/12 04:46:55;;;;;;;3.67;2.35;;;12.80;85.80;;;;;;5005248;28;20046;-74
2022/11/12 04:49:39;;;;;;;2.40;2.20;;;12.80;85.80;;;;;;5005190;28;20044;-74
2022/11/12 04:52:25;;;;;;;2.40;2.10;;;12.80;85.80;;;;;;5005632;28;20524;-75
2022/11/12 04:55:10;;;;;;;2.20;1.85;;;12.80;86.00;;;;;;5003944;28;20041;-76
2022/11/12 04:57:54;;;;;;;2.00;1.80;;;12.70;85.90;;;;;;5004515;28;20415;-75
2022/11/12 05:00:39;;;;;;;3.28;2.00;;;12.80;86.00;;;;;;5015624;28;20029;-76
2022/11/12 05:03:23;;;;;;;2.42;2.22;;;12.80;85.90;;;;;;5027567;28;20496;-76
2022/11/12 05:06:50;;;;;;;2.42;1.70;;;12.80;85.80;;;;;;5027554;28;20040;-76
2022/11/12 05:09:13;;;;;;;2.80;1.80;;;12.80;85.80;;;;;;5026560;28;20053;-76
2022/11/12 05:11:57;;;;;;;1.88;1.70;;;12.80;85.80;;;;;;5026715;28;20101;-75
2022/11/12 05:14:42;;;;;;;3.20;2.28;;;12.80;85.70;;;;;;5027890;28;20029;-75
2022/11/12 05:17:27;;;;;;;3.10;1.92;;;12.80;85.80;;;;;;5009145;28;20046;-76
2022/11/12 05:20:12;;;;;;;1.83;1.70;;;12.80;85.90;;;;;;5027224;28;20045;-76
2022/11/12 05:22:57;;;;;;;4.53;2.00;;;12.80;85.80;;;;;;5027539;28;20436;-75
2022/11/12 05:25:41;;;;;;;2.28;1.85;;;12.80;85.90;;;;;;5008600;28;20068;-76
2022/11/12 05:28:26;;;;;;;2.90;2.08;;;12.80;85.90;;;;;;5027025;28;20080;-76
2022/11/12 05:31:10;;;;;;;2.58;1.83;;;12.80;85.80;;;;;;5026768;28;20107;-76
2022/11/12 05:33:54;;;;;;;1.80;1.70;;;12.80;85.80;;;;;;5026371;28;20029;-76
2022/11/12 05:36:39;;;;;;;2.05;1.63;;;12.90;85.80;;;;;;5009090;28;20059;-76
2022/11/12 05:39:24;;;;;;;1.85;1.60;;;12.90;85.80;;;;;;5009047;28;20034;-76
2022/11/12 05:42:09;;;;;;;2.25;1.90;;;12.90;85.70;;;;;;5008678;28;20068;-76
2022/11/12 05:44:53;;;;;;;3.20;1.52;;;12.90;85.80;;;;;;5026511;28;20029;-76
2022/11/12 05:47:38;;;;;;;1.95;1.50;;;12.80;85.80;;;;;;5026224;28;20076;-75
2022/11/12 05:50:22;;;;;;;1.90;1.73;;;12.90;85.80;;;;;;5011736;28;20431;-76
2022/11/12 05:53:07;;;;;;;1.92;1.80;;;12.90;85.80;;;;;;5008550;28;20029;-77
2022/11/12 05:55:51;;;;;;;2.38;2.00;;;12.90;85.90;;;;;;5026397;28;20559;-76
2022/11/12 05:58:37;;;;;;;1.83;1.73;;;12.90;85.80;;;;;;5026372;28;20041;-77
2022/11/12 06:01:21;;;;;;;2.00;1.80;;;12.90;85.80;;;;;;5026289;28;20137;-76
2022/11/12 06:04:06;;;;;;;1.85;1.52;;;12.90;85.70;;;;;;4993981;28;20427;-76
2022/11/12 06:06:50;;;;;;;1.80;1.45;;;12.90;85.70;;;;;;5026080;28;20404;-77
2022/11/12 06:09:34;;;;;;;1.50;1.40;;;12.90;85.60;;;;;;5026230;28;20140;-77
2022/11/12 06:12:19;;;;;;;1.88;1.75;;;12.90;85.50;;;;;;5025946;28;20130;-77
2022/11/12 06:15:04;;;;;;;2.17;1.50;;;13.00;85.50;;;;;;5026413;28;20503;-77
2022/11/12 06:17:49;;;;;;;2.35;1.42;;;13.00;85.50;;;;;;5026527;28;20132;-76
2022/11/12 06:20:34;;;;;;;1.83;1.50;;;13.00;85.50;;;;;;5026900;28;20057;-76
2022/11/12 06:23:19;;;;;;;1.80;1.70;;;13.00;85.50;;;;;;5025922;28;20439;-76
2022/11/12 06:26:03;;;;;;;1.27;1.17;;;13.00;85.50;;;;;;5026219;28;20036;-76
2022/11/12 06:28:48;;;;;;;1.33;1.23;;;13.00;85.50;;;;;;5007572;28;20042;-77
2022/11/12 06:31:33;;;;;;;1.73;1.35;;;13.00;85.50;;;;;;5007999;28;20045;-76
2022/11/12 06:34:17;;;;;;;1.92;1.13;;;13.00;85.60;;;;;;5025453;28;20040;-75
2022/11/12 06:37:01;;;;;;;1.85;1.55;;;13.00;85.60;;;;;;5007751;28;20041;-76
2022/11/12 06:39:46;;;;;;;1.58;0.80;;;13.00;85.50;;;;;;5025731;28;20040;-76
2022/11/12 06:42:31;;;;;;;1.60;1.40;;;13.00;85.50;;;;;;5025140;28;20045;-77
2022/11/12 06:45:15;;;;;;;1.30;1.10;;;13.00;85.40;;;;;;5025687;28;20452;-76
2022/11/12 06:47:59;;;;;;;2.28;1.30;;;13.10;85.50;;;;;;5025146;28;20500;-77
2022/11/12 06:50:44;;;;;;;1.65;1.10;;;13.10;85.40;;;;;;5026057;28;20124;-76
2022/11/12 06:53:29;;;;;;;1.35;1.20;;;13.10;85.30;;;;;;5025752;28;20042;-77
2022/11/12 06:56:14;;;;;;;1.27;1.10;;;13.10;85.40;;;;;;5025383;28;20091;-77
2022/11/12 06:58:58;;;;;;;1.85;1.27;;;13.10;85.30;;;;;;5024708;28;20041;-78
2022/11/12 07:01:44;;;;;;;1.05;0.90;;;13.10;85.30;;;;;;5024804;28;20586;-77
2022/11/12 07:04:28;;;;;;;1.13;1.05;;;13.10;85.20;;;;;;5025751;28;20037;-77
2022/11/12 07:07:13;;;;;;;1.25;1.15;;;13.10;85.20;;;;;;5007648;28;20578;-76
2022/11/12 07:09:57;;;;;;;1.63;1.08;;;13.10;85.40;;;;;;5023998;28;20041;-76
2022/11/12 07:12:42;;;;;;;1.45;1.25;;;13.10;85.50;;;;;;5009223;28;20045;-77
2022/11/12 07:15:26;;;;;;;2.03;1.40;;;13.10;85.40;;;;;;5007479;28;20562;-76
2022/11/12 07:18:11;;;;;;;1.40;1.30;;;13.20;85.40;;;;;;5025310;28;20033;-78
2022/11/12 07:21:01;;;;;;;2.67;1.35;;;13.20;85.50;;;;;;5024900;28;20037;-77
2022/11/12 07:23:46;;;;;;;2.28;1.38;;;13.20;85.50;;;;;;5025175;28;20369;-77
2022/11/12 07:26:31;;;;;;;1.67;1.00;;;13.30;85.60;;;;;;5006605;28;20056;-75
2022/11/12 07:29:15;;;;;;;3.42;1.10;;;13.30;85.50;;;;;;5023622;28;20506;-77
2022/11/12 07:32:00;;;;;;;1.45;1.20;;;13.30;85.40;;;;;;5024520;28;20045;-76
2022/11/12 07:34:44;;;;;;;2.15;1.20;;;13.30;85.40;;;;;;5024776;28;20033;-77
2022/11/12 07:37:28;;;;;;;1.55;1.08;;;13.30;85.30;;;;;;5009487;28;20504;-77
2022/11/12 07:40:14;;;;;;;2.78;1.08;;;13.30;85.30;;;;;;5025090;28;20407;-76
2022/11/12 07:42:58;;;;;;;1.65;1.15;;;13.30;85.30;;;;;;5009689;28;20040;-75
2022/11/12 07:45:43;;;;;;;1.50;1.23;;;13.30;85.30;;;;;;5029382;28;20033;-76
2022/11/12 07:48:28;;;;;;;1.33;1.20;;;13.30;85.20;;;;;;5028256;28;20046;-77
2022/11/12 07:51:15;;;;;;;2.33;1.20;;;13.30;85.10;;;;;;5011456;28;20124;-75
2022/11/12 07:54:00;;;;;;;1.30;1.20;;;13.40;85.10;;;;;;5025154;28;20123;-76
2022/11/12 07:56:45;;;;;;;2.53;1.48;;;13.40;85.00;;;;;;5024327;28;20353;-75
2022/11/12 07:59:29;;;;;;;2.63;1.30;;;13.40;85.00;;;;;;5013385;28;20037;-80
2022/11/12 08:02:14;;;;;;;2.03;1.45;;;13.40;85.10;;;;;;5012863;28;20155;-84
2022/11/12 08:04:58;;;;;;;1.50;1.08;;;13.40;85.10;;;;;;5023828;28;20037;-80
2022/11/12 08:07:42;;;;;;;2.92;1.23;;;13.40;85.00;;;;;;5022515;28;20458;-79
2022/11/12 08:10:28;;;;;;;1.20;1.10;;;13.40;85.00;;;;;;5007165;28;20030;-80
2022/11/12 08:13:13;;;;;;;1.33;1.23;;;13.40;85.00;;;;;;5003961;28;20037;-77
2022/11/12 08:15:58;;;;;;;1.30;1.20;;;13.40;84.90;;;;;;5023049;28;20037;-77
2022/11/12 08:18:43;;;;;;;2.55;1.60;;;13.40;85.10;;;;;;5010283;28;20064;-77
2022/11/12 08:21:27;;;;;;;1.90;1.30;;;13.40;85.10;;;;;;5027599;28;20135;-81
2022/11/12 08:24:12;;;;;;;0.98;0.90;;;13.40;85.10;;;;;;5018451;28;20041;-80
2022/11/12 08:26:56;;;;;;;3.30;1.40;;;13.50;85.10;;;;;;5027875;28;20033;-80
2022/11/12 08:29:41;;;;;;;1.10;0.90;;;13.50;85.10;;;;;;5027802;28;20029;-81
2022/11/12 08:32:26;;;;;;;1.50;1.23;;;13.50;85.10;;;;;;5014340;28;20076;-80
2022/11/12 08:35:10;;;;;;;2.70;1.30;;;13.50;85.10;;;;;;5032249;28;20029;-81
2022/11/12 08:38:03;;;;;;;1.30;0.90;;;13.50;85.00;;;;;;5013379;28;20033;-81
2022/11/12 08:40:47;;;;;;;1.38;0.90;;;13.60;85.00;;;;;;5013770;28;20124;-80
2022/11/12 08:43:32;;;;;;;1.40;1.10;;;13.60;84.90;;;;;;5031187;28;20041;-78
2022/11/12 08:46:16;;;;;;;1.33;1.05;;;13.50;84.80;;;;;;5032378;28;20041;-81
2022/11/12 08:49:00;;;;;;;1.48;1.00;;;13.60;85.30;;;;;;5011947;28;20038;-87
2022/11/12 08:51:45;;;;;;;3.65;1.20;;;13.60;85.10;;;;;;5025444;28;20049;-85
2022/11/12 08:54:30;;;;;;;1.08;0.80;;;13.60;85.10;;;;;;5019691;28;20033;-83
2022/11/12 08:57:15;;;;;;;2.90;0.98;;;13.60;85.00;;;;;;5000562;28;20147;-82
2022/11/12 09:00:03;;;;;;;1.73;1.00;;;13.60;84.80;;;;;;4999954;28;20126;-80
2022/11/12 09:02:48;;;;;;;1.25;1.08;;;13.60;84.80;;;;;;5031058;28;20029;-79
2022/11/12 09:05:35;;;;;;;1.40;0.80;;;13.70;84.90;;;;;;5021899;28;20052;-80
2022/11/12 09:08:22;;;;;;;1.20;0.98;;;13.70;84.70;;;;;;5031780;28;20041;-79
2022/11/12 09:11:07;;;;;;;1.50;1.00;;;13.70;84.70;;;;;;5033207;28;20069;-80
2022/11/12 09:13:53;;;;;;;2.00;1.25;;;13.70;84.70;;;;;;5031668;28;20128;-77
2022/11/12 09:16:38;;;;;;;1.67;0.85;;;13.70;84.60;;;;;;5028161;28;20052;-78
2022/11/12 09:19:23;;;;;;;0.93;0.73;;;13.70;84.70;;;;;;5027650;28;20531;-78
2022/11/12 09:22:07;;;;;;;0.82;0.63;;;13.70;84.70;;;;;;5006077;28;20036;-78
2022/11/12 09:24:52;;;;;;;1.73;0.88;;;13.70;84.70;;;;;;5026848;28;20120;-79
2022/11/12 09:27:36;;;;;;;0.90;0.65;;;13.70;84.70;;;;;;5021776;28;20034;-82
2022/11/12 09:30:21;;;;;;;1.90;0.70;;;13.80;84.80;;;;;;5002980;28;20454;-82
2022/11/12 09:33:06;;;;;;;2.25;0.95;;;13.80;85.00;;;;;;5008693;28;20120;-81
2022/11/12 09:35:51;;;;;;;1.70;0.90;;;13.80;85.10;;;;;;5021968;28;20360;-79
2022/11/12 09:38:35;;;;;;;1.40;0.90;;;13.80;85.10;;;;;;5009181;28;20064;-81
2022/11/12 09:41:32;;;;;;;1.23;0.80;;;13.80;85.10;;;;;;5019491;28;20045;-79
2022/11/12 09:44:20;;;;;;;2.45;0.93;;;13.80;85.10;;;;;;5023585;28;20045;-80
2022/11/12 09:47:36;;;;;;;1.35;0.85;;;13.80;85.20;;;;;;5021535;28;20403;-80
2022/11/12 09:50:27;;;;;;;0.85;0.80;;;13.80;85.10;;;;;;5013889;28;20049;-85
2022/11/12 09:53:18;;;;;;;0.90;0.75;;;13.80;85.30;;;;;;5004926;28;20488;-79
2022/11/12 09:56:06;;;;;;;5.68;0.82;;;13.80;85.30;;;;;;5004514;28;20095;-83
2022/11/12 09:58:52;;;;;;;2.63;0.90;;;13.80;85.30;;;;;;5009124;28;20125;-84
2022/11/12 10:01:58;;;;;;;1.67;0.75;;;13.80;85.30;;;;;;4989506;28;20042;-80
2022/11/12 10:05:23;;;;;;;1.48;0.60;;;13.80;85.30;;;;;;5010152;28;20045;-80
2022/11/12 10:08:32;;;;;;;1.60;0.98;;;13.80;85.30;;;;;;5021488;28;20033;-83
2022/11/12 10:11:24;;;;;;;0.95;0.80;;;13.80;85.10;;;;;;5002460;28;20034;-87
2022/11/12 10:14:25;;;;;;;1.05;0.90;;;13.90;85.20;;;;;;5022578;28;20041;-87
2022/11/12 10:17:37;;;;;;;2.05;0.95;;;13.90;85.20;;;;;;5011633;28;20033;-80
2022/11/12 10:20:35;;;;;;;0.90;0.73;;;13.80;85.40;;;;;;5011782;28;20029;-79
2022/11/12 10:23:33;;;;;;;0.98;0.65;;;13.80;85.30;;;;;;5009733;28;20041;-80
2022/11/12 10:26:20;;;;;;;0.70;0.70;;;13.90;85.30;;;;;;5029332;28;20486;-80
2022/11/12 10:29:28;;;;;;;1.05;0.80;;;13.90;85.10;;;;;;5024858;28;20034;-80
2022/11/12 10:32:15;;;;;;;1.13;0.60;;;13.90;85.10;;;;;;5028947;28;20357;-80
2022/11/12 10:35:00;;;;;;;2.20;1.02;;;13.90;85.10;;;;;;5027682;28;20070;-79
2022/11/12 10:37:53;;;;;;;0.90;0.73;;;13.90;85.10;;;;;;5017375;28;20040;-78
2022/11/12 10:40:39;;;;;;;0.88;0.80;;;13.90;85.00;;;;;;5029126;28;20129;-76
2022/11/12 10:43:24;;;;;;;1.08;0.80;;;13.90;85.60;;;;;;5011615;28;20432;-76
2022/11/12 10:46:25;;;;;;;0.68;0.68;;;13.90;85.10;;;;;;5010611;28;20120;-78
2022/11/12 10:49:15;;;;;;;1.80;1.00;;;13.90;85.20;;;;;;5026757;28;20041;-75
2022/11/12 10:51:59;;;;;;;0.68;0.68;;;13.90;85.40;;;;;;5009902;28;20044;-76
2022/11/12 10:54:44;;;;;;;2.90;0.90;;;13.90;85.60;;;;;;5028677;28;20505;-76
2022/11/12 10:57:29;;;;;;;2.17;1.05;;;13.90;85.90;;;;;;5009879;28;20041;-76
2022/11/12 11:00:14;;;;;;;2.78;1.30;;;13.90;86.30;;;;;;5027379;28;20042;-76
2022/11/12 11:03:04;;;;;;;1.42;1.33;;;13.90;86.00;;;;;;5033345;28;20460;-76
2022/11/12 11:05:55;;;;;;;2.05;0.90;;;13.90;86.00;;;;;;5011035;28;20044;-75
2022/11/12 11:08:50;;;;;;;2.55;0.90;;;13.90;85.80;;;;;;5022513;28;20103;-76
2022/11/12 11:11:35;;;;;;;0.60;0.60;;;13.90;85.90;;;;;;5008297;28;20053;-76
2022/11/12 11:14:22;;;;;;;2.42;0.90;;;13.90;85.90;;;;;;5030579;28;20593;-77
2022/11/12 11:17:19;;;;;;;2.28;0.93;;;13.80;86.00;;;;;;5017344;28;20124;-77
2022/11/12 11:20:13;;;;;;;1.15;0.70;;;13.80;86.40;;;;;;5029447;28;20503;-76
2022/11/12 11:23:19;;;;;;;1.08;0.80;;;13.80;86.80;;;;;;5014239;28;20030;-77
2022/11/12 11:26:15;;;;;;;1.83;0.75;;;13.70;87.10;;;;;;5030757;28;20562;-78
2022/11/12 11:29:23;;;;;;;1.83;0.60;;;13.70;87.30;;;;;;4997517;28;20034;-77
2022/11/12 11:32:35;;;;;;;0.70;0.70;;;13.70;87.50;;;;;;5034647;28;20504;-79
2022/11/12 11:35:47;;;;;;;0.63;0.47;;;13.70;87.80;;;;;;5017730;28;20500;-79
2022/11/12 11:38:40;;;;;;;0.98;0.68;;;13.60;87.90;;;;;;5019445;28;20462;-77
2022/11/12 11:41:43;;;;;;;0.82;0.70;;;13.60;88.00;;;;;;5032220;28;20045;-80
2022/11/12 11:44:55;;;;;;;0.57;0.57;;;13.60;88.00;;;;;;5015850;28;20045;-83
2022/11/12 11:47:56;;;;;;;1.00;0.45;;;13.60;88.00;;;;;;5013188;28;20041;-81
2022/11/12 11:51:06;;;;;;;2.53;0.70;;;13.70;88.20;;;;;;5031742;28;20397;-83
2022/11/12 11:54:05;;;;;;;0.77;0.70;;;13.70;88.20;;;;;;5002158;28;20093;-83
2022/11/12 11:56:53;;;;;;;1.25;0.70;;;13.70;88.10;;;;;;5020640;28;20029;-79
2022/11/12 12:00:08;;;;;;;0.73;0.52;;;13.70;88.10;;;;;;5017106;28;20136;-79
2022/11/12 12:03:16;;;;;;;0.60;0.60;;;13.70;88.10;;;;;;5033834;28;20042;-81
2022/11/12 12:06:33;;;;;;;2.92;0.77;;;13.70;88.10;;;;;;5010706;28;20057;-82
2022/11/12 12:09:26;;;;;;;1.15;0.85;;;13.70;88.20;;;;;;5010519;28;20404;-82
2022/11/12 12:12:47;;;;;;;0.85;0.73;;;13.80;88.40;;;;;;4992881;28;20033;-84
2022/11/12 12:15:44;;;;;;;1.42;0.88;;;13.80;88.40;;;;;;4988962;28;20037;-79
2022/11/12 12:18:31;;;;;;;1.92;0.70;;;13.80;88.60;;;;;;5025231;28;20076;-81
2022/11/12 12:21:18;;;;;;;0.90;0.63;;;13.80;88.50;;;;;;5030353;28;20676;-82
2022/11/12 12:24:11;;;;;;;0.85;0.65;;;13.80;88.60;;;;;;5031570;28;20036;-79
2022/11/12 12:27:02;;;;;;;1.38;0.70;;;13.80;88.60;;;;;;5013650;28;20519;-75
2022/11/12 12:30:03;;;;;;;1.23;0.80;;;13.80;88.60;;;;;;5015704;28;20096;-75
2022/11/12 12:32:54;;;;;;;2.63;0.68;;;13.80;88.70;;;;;;5022537;28;20046;-75
2022/11/12 12:36:00;;;;;;;1.15;0.82;;;13.90;88.90;;;;;;5022720;28;20049;-76
2022/11/12 12:38:47;;;;;;;1.52;0.70;;;13.80;88.90;;;;;;5029876;28;20038;-82
2022/11/12 12:41:44;;;;;;;1.02;0.70;;;13.80;88.90;;;;;;5002131;28;20061;-79
2022/11/12 12:45:00;;;;;;;3.05;0.90;;;13.90;89.10;;;;;;5025160;28;20398;-78
2022/11/12 12:47:46;;;;;;;1.05;0.88;;;13.90;89.20;;;;;;5012254;28;20034;-78
2022/11/12 12:50:32;;;;;;;1.80;0.70;;;13.90;89.20;;;;;;5012326;28;20042;-79
2022/11/12 12:53:31;;;;;;;1.10;0.80;;;13.90;89.40;;;;;;5029975;28;20496;-76
2022/11/12 12:56:21;;;;;;;0.80;0.80;;;13.90;89.30;;;;;;5018899;28;20033;-78
2022/11/12 12:59:19;;;;;;;1.88;1.00;;;13.90;89.40;;;;;;5030772;28;20041;-77
2022/11/12 13:02:22;;;;;;;1.20;0.77;;;13.80;89.60;;;;;;4996555;28;20519;-79
2022/11/12 13:05:35;;;;;;;1.80;0.77;;;13.90;89.60;;;;;;5024012;28;20444;-76
2022/11/12 13:08:23;;;;;;;2.30;0.80;;;13.90;89.70;;;;;;5028475;28;20033;-76
2022/11/12 13:11:08;;;;;;;0.98;0.80;;;13.90;89.50;;;;;;5030835;28;20033;-77
2022/11/12 13:13:52;;;;;;;0.77;0.77;;;13.90;89.40;;;;;;5031009;28;20040;-77
2022/11/12 13:16:49;;;;;;;1.13;0.68;;;13.90;89.30;;;;;;5015934;28;20033;-78
2022/11/12 13:19:38;;;;;;;0.77;0.70;;;13.90;89.40;;;;;;5026792;28;20034;-78
2022/11/12 13:22:25;;;;;;;1.10;0.52;;;13.90;89.30;;;;;;5029144;28;20030;-77
2022/11/12 13:25:10;;;;;;;1.40;0.50;;;14.00;89.30;;;;;;5029256;28;20042;-76
2022/11/12 13:28:04;;;;;;;0.77;0.60;;;14.00;89.30;;;;;;5028320;28;20025;-76
2022/11/12 13:30:48;;;;;;;0.95;0.70;;;14.00;89.20;;;;;;5028348;28;20116;-77
2022/11/12 13:33:37;;;;;;;1.80;0.80;;;14.00;89.50;;;;;;5030306;28;20060;-76
2022/11/12 13:36:28;;;;;;;1.25;0.60;;;14.00;89.40;;;;;;5031104;28;20407;-76
2022/11/12 13:39:16;;;;;;;2.25;0.65;;;14.00;89.50;;;;;;5010466;28;20041;-77
2022/11/12 13:45:25;;;;;;;2.35;0.60;;;14.00;89.60;;;;;;5028163;28;20041;-76
2022/11/12 13:48:27;;;;;;;0.93;0.73;;;14.10;90.40;;;;;;5025795;28;20037;-74
2022/11/12 13:51:41;;;;;;;1.45;0.70;;;14.10;90.90;;;;;;5007235;28;20045;-76
2022/11/12 13:54:38;;;;;;;0.90;0.70;;;14.20;90.70;;;;;;5026436;28;20416;-78
2022/11/12 13:57:22;;;;;;;1.05;0.80;;;14.20;90.30;;;;;;5008040;28;20336;-77
2022/11/12 14:00:28;;;;;;;1.20;0.70;;;14.10;90.10;;;;;;5007938;28;20504;-78
2022/11/12 14:03:17;;;;;;;0.57;0.50;;;14.20;90.00;;;;;;4993692;28;20037;-77
2022/11/12 14:06:06;;;;;;;0.60;0.40;;;14.20;90.10;;;;;;5028445;28;20033;-78
2022/11/12 14:09:26;;;;;;;1.77;0.80;;;14.20;90.00;;;;;;5030267;28;20132;-78
2022/11/12 14:12:18;;;;;;;1.08;0.57;;;14.20;90.10;;;;;;4991372;28;20033;-77
2022/11/12 14:15:22;;;;;;;1.33;1.23;;;14.20;90.10;;;;;;5029614;28;20527;-76
2022/11/12 14:18:31;;;;;;;1.48;1.08;;;14.20;90.00;;;;;;5014156;28;20073;-77
2022/11/12 14:21:17;;;;;;;2.63;1.83;;;14.20;90.00;;;;;;5030765;28;20180;-77
2022/11/12 14:24:02;;;;;;;;;;;14.20;90.10;;;;;;5029991;28;20049;-77
2022/11/12 14:26:48;;;;;;;2.22;1.40;;;14.20;90.00;;;;;;5030887;28;19917;-77
2022/11/12 14:29:32;;;;;;;2.08;1.42;;;14.20;90.10;;;;;;5014933;28;20132;-77
2022/11/12 14:32:17;;;;;;;1.50;1.30;;;14.20;90.10;;;;;;5030348;28;20041;-78
2022/11/12 14:35:18;;;;;;;1.60;0.73;;;14.20;90.30;;;;;;5028459;28;20099;-78
2022/11/12 14:38:08;;;;;;;1.00;0.90;;;14.10;90.20;;;;;;5029137;28;20519;-79
2022/11/12 14:40:56;;;;;;;0.65;0.55;;;14.10;90.30;;;;;;5029283;28;20955;-76
2022/11/12 14:43:41;;;;;;;3.50;0.73;;;14.20;90.30;;;;;;5013923;28;20413;-77
2022/11/12 14:46:38;;;;;;;1.00;0.90;;;14.20;90.40;;;;;;5030827;28;20079;-77
2022/11/12 14:49:35;;;;;;;1.75;1.17;;;14.10;90.40;;;;;;4993343;28;20605;-77
2022/11/12 14:52:27;;;;;;;1.90;1.23;;;14.20;90.40;;;;;;5024600;28;20089;-77
2022/11/12 14:55:21;;;;;;;1.63;1.13;;;14.10;90.50;;;;;;5025015;28;20033;-76
2022/11/12 14:58:05;;;;;;;2.20;1.83;;;14.20;90.60;;;;;;5024743;28;20032;-79
2022/11/12 15:00:52;;;;;;;3.13;2.35;;;14.20;90.50;;;;;;5025998;28;20029;-78
2022/11/12 15:03:37;;;;;;;3.40;2.10;;;14.20;90.60;;;;;;5024615;28;20040;-76
2022/11/12 15:06:32;;;;;;;4.43;2.92;;;14.30;90.60;;;;;;5018935;28;20030;-75